sensor_id;sensor_type;location;lat;lon;timestamp;pressure;altitude;pressure_sealevel;temperature;humidity
8451;BME280;4262;50.980;13.892;2023-12-20T00:01:58;22804.41;;;-142.97;81.29
8451;BME280;4262;50.980;13.892;2023-12-20T00:04:25;20330.16;;;-142.97;81.68
8451;BME280;4262;50.980;13.892;2023-12-20T00:06:53;20577.50;;;-142.97;81.68
8451;BME280;4262;50.980;13.892;2023-12-20T00:09:20;17857.78;;;-142.97;82.41
8451;BME280;4262;50.980;13.892;2023-12-20T00:11:47;15634.19;;;-142.97;82.77
8451;BME280;4262;50.980;13.892;2023-12-20T00:14:14;21567.03;;;-142.97;81.63
8451;BME280;4262;50.980;13.892;2023-12-20T00:16:41;23547.03;;;-142.97;81.20
8451;BME280;4262;50.980;13.892;2023-12-20T00:19:07;21814.47;;;-142.97;81.37
8451;BME280;4262;50.980;13.892;2023-12-20T00:21:34;25032.78;;;-142.97;80.93
8451;BME280;4262;50.980;13.892;2023-12-20T00:24:03;24537.44;;;-142.97;81.13
8451;BME280;4262;50.980;13.892;2023-12-20T00:26:30;27014.81;;;-142.97;80.86
8451;BME280;4262;50.980;13.892;2023-12-20T00:28:56;26519.19;;;-142.97;81.10
8451;BME280;4262;50.980;13.892;2023-12-20T00:31:23;24042.19;;;-142.97;81.33
8451;BME280;4262;50.980;13.892;2023-12-20T00:33:50;24289.81;;;-142.97;81.34
8451;BME280;4262;50.980;13.892;2023-12-20T00:36:17;23051.91;;;-142.97;81.43
8451;BME280;4262;50.980;13.892;2023-12-20T00:38:44;24042.19;;;-142.97;81.15
8451;BME280;4262;50.980;13.892;2023-12-20T00:41:12;23547.03;;;-142.97;81.17
8451;BME280;4262;50.980;13.892;2023-12-20T00:43:39;25775.91;;;-142.97;80.87
8451;BME280;4262;50.980;13.892;2023-12-20T00:46:05;27262.66;;;-142.97;80.76
8451;BME280;4262;50.980;13.892;2023-12-20T00:48:32;26767.00;;;-142.97;80.64
8451;BME280;4262;50.980;13.892;2023-12-20T00:50:59;26023.66;;;-142.97;81.03
8451;BME280;4262;50.980;13.892;2023-12-20T00:53:26;28254.19;;;-142.97;80.60
8451;BME280;4262;50.980;13.892;2023-12-20T00:55:52;27758.38;;;-142.97;80.75
8451;BME280;4262;50.980;13.892;2023-12-20T00:58:21;29494.03;;;-142.97;80.21
8451;BME280;4262;50.980;13.892;2023-12-20T01:00:47;27262.66;;;-142.97;80.64
8451;BME280;4262;50.980;13.892;2023-12-20T01:03:14;26767.00;;;-142.97;80.96
8451;BME280;4262;50.980;13.892;2023-12-20T01:05:41;31726.88;;;-142.97;80.13
8451;BME280;4262;50.980;13.892;2023-12-20T01:08:08;31230.56;;;-142.97;80.15
8451;BME280;4262;50.980;13.892;2023-12-20T01:10:35;29742.03;;;-142.97;80.52
8451;BME280;4262;50.980;13.892;2023-12-20T01:13:01;28998.03;;;-142.97;80.40
8451;BME280;4262;50.980;13.892;2023-12-20T01:15:30;31230.56;;;-142.97;80.21
8451;BME280;4262;50.980;13.892;2023-12-20T01:17:56;32223.28;;;-142.97;79.99
8451;BME280;4262;50.980;13.892;2023-12-20T01:20:25;30238.16;;;-142.97;80.42
8451;BME280;4262;50.980;13.892;2023-12-20T01:22:52;29494.03;;;-142.97;80.41
8451;BME280;4262;50.980;13.892;2023-12-20T01:25:18;28254.19;;;-142.97;80.78
8451;BME280;4262;50.980;13.892;2023-12-20T01:27:45;31726.88;;;-142.97;80.30
8451;BME280;4262;50.980;13.892;2023-12-20T01:30:13;31230.56;;;-142.97;80.08
8451;BME280;4262;50.980;13.892;2023-12-20T01:32:41;31726.88;;;-142.97;80.24
8451;BME280;4262;50.980;13.892;2023-12-20T01:35:08;33961.25;;;-142.97;79.92
8451;BME280;4262;50.980;13.892;2023-12-20T01:37:35;35948.59;;;-142.97;79.52
8451;BME280;4262;50.980;13.892;2023-12-20T01:40:02;34209.59;;;-142.97;79.98
8451;BME280;4262;50.980;13.892;2023-12-20T01:42:29;31975.06;;;-142.97;79.99
8451;BME280;4262;50.980;13.892;2023-12-20T01:44:55;32471.50;;;-142.97;80.16
8451;BME280;4262;50.980;13.892;2023-12-20T01:47:22;34954.78;;;-142.97;79.69
8451;BME280;4262;50.980;13.892;2023-12-20T01:49:50;37191.28;;;-142.97;79.43
8451;BME280;4262;50.980;13.892;2023-12-20T01:52:18;35700.09;;;-142.97;79.46
8451;BME280;4262;50.980;13.892;2023-12-20T01:54:46;42664.59;;;-142.97;78.62
8451;BME280;4262;50.980;13.892;2023-12-20T01:57:14;41668.78;;;-142.97;78.74
8451;BME280;4262;50.980;13.892;2023-12-20T01:59:42;40922.13;;;-142.97;78.91
8451;BME280;4262;50.980;13.892;2023-12-20T02:02:08;39429.28;;;-142.97;79.07
8451;BME280;4262;50.980;13.892;2023-12-20T02:04:38;40673.25;;;-142.97;79.07
8451;BME280;4262;50.980;13.892;2023-12-20T02:07:07;37937.13;;;-142.97;79.34
8451;BME280;4262;50.980;13.892;2023-12-20T02:09:33;37439.88;;;-142.97;79.24
8451;BME280;4262;50.980;13.892;2023-12-20T02:12:01;38434.44;;;-142.97;79.31
8451;BME280;4262;50.980;13.892;2023-12-20T02:14:28;42664.59;;;-142.97;78.55
8451;BME280;4262;50.980;13.892;2023-12-20T02:16:54;39429.28;;;-142.97;79.07
8451;BME280;4262;50.980;13.892;2023-12-20T02:19:21;35948.59;;;-142.97;79.36
8451;BME280;4262;50.980;13.892;2023-12-20T02:21:49;39926.81;;;-142.97;78.88
8451;BME280;4262;50.980;13.892;2023-12-20T02:24:16;39926.81;;;-142.97;79.12
8451;BME280;4262;50.980;13.892;2023-12-20T02:26:44;40175.63;;;-142.97;78.97
8451;BME280;4262;50.980;13.892;2023-12-20T02:29:11;40424.44;;;-142.97;79.00
8451;BME280;4262;50.980;13.892;2023-12-20T02:31:38;37688.50;;;-142.97;79.23
8451;BME280;4262;50.980;13.892;2023-12-20T02:34:05;42664.59;;;-142.97;78.59
8451;BME280;4262;50.980;13.892;2023-12-20T02:36:31;40424.44;;;-142.97;78.97
8451;BME280;4262;50.980;13.892;2023-12-20T02:38:59;46900.06;;;-142.97;78.32
8451;BME280;4262;50.980;13.892;2023-12-20T02:41:26;41917.72;;;-142.97;78.85
8451;BME280;4262;50.980;13.892;2023-12-20T02:43:53;45155.41;;;-142.97;78.22
8451;BME280;4262;50.980;13.892;2023-12-20T02:46:20;46152.25;;;-142.97;78.20
8451;BME280;4262;50.980;13.892;2023-12-20T02:48:47;46650.78;;;-142.97;78.15
8451;BME280;4262;50.980;13.892;2023-12-20T02:51:13;47648.06;;;-142.97;77.85
8451;BME280;4262;50.980;13.892;2023-12-20T02:53:40;45404.59;;;-142.97;78.38
8451;BME280;4262;50.980;13.892;2023-12-20T02:56:08;47897.44;;;-142.97;77.95
8451;BME280;4262;50.980;13.892;2023-12-20T02:58:35;46401.50;;;-142.97;78.23
8451;BME280;4262;50.980;13.892;2023-12-20T03:01:02;49893.03;;;-142.97;77.82
8451;BME280;4262;50.980;13.892;2023-12-20T03:03:29;45155.41;;;-142.97;78.22
8451;BME280;4262;50.980;13.892;2023-12-20T03:05:56;44906.25;;;-142.97;78.58
8451;BME280;4262;50.980;13.892;2023-12-20T03:08:23;42664.59;;;-142.97;78.78
8451;BME280;4262;50.980;13.892;2023-12-20T03:10:50;43909.78;;;-142.97;78.54
8451;BME280;4262;50.980;13.892;2023-12-20T03:13:19;50142.56;;;-142.97;77.81
8451;BME280;4262;50.980;13.892;2023-12-20T03:15:46;49893.03;;;-142.97;77.87
8451;BME280;4262;50.980;13.892;2023-12-20T03:18:13;54887.22;;;-142.97;77.23
8451;BME280;4262;50.980;13.892;2023-12-20T03:20:39;49893.03;;;-142.97;78.00
8451;BME280;4262;50.980;13.892;2023-12-20T03:23:07;48895.09;;;-142.97;78.01
8451;BME280;4262;50.980;13.892;2023-12-20T03:25:34;45903.00;;;-142.97;78.34
8451;BME280;4262;50.980;13.892;2023-12-20T03:28:00;43162.59;;;-142.97;78.76
8451;BME280;4262;50.980;13.892;2023-12-20T03:30:28;41171.00;;;-142.97;79.12
8451;BME280;4262;50.980;13.892;2023-12-20T03:32:55;40424.44;;;-142.97;79.07
8451;BME280;4262;50.980;13.892;2023-12-20T03:35:22;37688.50;;;-142.97;79.72
8451;BME280;4262;50.980;13.892;2023-12-20T03:37:48;35948.59;;;-142.97;79.64
8451;BME280;4262;50.980;13.892;2023-12-20T03:40:15;34954.78;;;-142.97;79.96
8451;BME280;4262;50.980;13.892;2023-12-20T03:42:42;34706.38;;;-142.97;79.99
8451;BME280;4262;50.980;13.892;2023-12-20T03:45:09;36445.63;;;-142.97;79.64
8451;BME280;4262;50.980;13.892;2023-12-20T03:47:37;35451.66;;;-142.97;79.82
8451;BME280;4262;50.980;13.892;2023-12-20T03:50:05;32223.28;;;-142.97;80.39
8451;BME280;4262;50.980;13.892;2023-12-20T03:52:32;33464.59;;;-142.97;80.25
8451;BME280;4262;50.980;13.892;2023-12-20T03:54:58;39180.53;;;-142.97;79.31
8451;BME280;4262;50.980;13.892;2023-12-20T03:57:25;38683.13;;;-142.97;79.35
8451;BME280;4262;50.980;13.892;2023-12-20T03:59:52;33216.28;;;-142.97;80.01
8451;BME280;4262;50.980;13.892;2023-12-20T04:02:18;43411.66;;;-142.97;78.75
8451;BME280;4262;50.980;13.892;2023-12-20T04:04:47;42166.66;;;-142.97;78.86
8451;BME280;4262;50.980;13.892;2023-12-20T04:07:12;44407.97;;;-142.97;78.64
8451;BME280;4262;50.980;13.892;2023-12-20T04:09:40;43660.69;;;-142.97;78.78
8451;BME280;4262;50.980;13.892;2023-12-20T04:12:07;47149.38;;;-142.97;78.33
8451;BME280;4262;50.980;13.892;2023-12-20T04:14:34;46152.25;;;-142.97;78.51
8451;BME280;4262;50.980;13.892;2023-12-20T04:17:00;44407.97;;;-142.97;78.52
8451;BME280;4262;50.980;13.892;2023-12-20T04:19:27;46650.78;;;-142.97;78.10
8451;BME280;4262;50.980;13.892;2023-12-20T04:21:55;43411.66;;;-142.97;78.56
8451;BME280;4262;50.980;13.892;2023-12-20T04:24:22;51390.50;;;-142.97;77.43
8451;BME280;4262;50.980;13.892;2023-12-20T04:26:49;51640.16;;;-142.97;77.63
8451;BME280;4262;50.980;13.892;2023-12-20T04:29:16;55636.97;;;-142.97;77.20
8451;BME280;4262;50.980;13.892;2023-12-20T04:31:42;59638.50;;;-142.97;76.66
8451;BME280;4262;50.980;13.892;2023-12-20T04:34:09;54137.63;;;-142.97;77.24
8451;BME280;4262;50.980;13.892;2023-12-20T04:36:36;55636.97;;;-142.97;77.11
8451;BME280;4262;50.980;13.892;2023-12-20T04:39:04;63143.69;;;-142.97;76.21
8451;BME280;4262;50.980;13.892;2023-12-20T04:41:32;60139.00;;;-142.97;76.67
8451;BME280;4262;50.980;13.892;2023-12-20T04:43:58;61140.28;;;-142.97;76.57
8451;BME280;4262;50.980;13.892;2023-12-20T04:46:26;57387.06;;;-142.97;76.94
8451;BME280;4262;50.980;13.892;2023-12-20T04:48:52;60889.94;;;-142.97;76.46
8451;BME280;4262;50.980;13.892;2023-12-20T04:51:19;58137.38;;;-142.97;76.82
8451;BME280;4262;50.980;13.892;2023-12-20T04:53:47;56886.94;;;-142.97;76.90
8451;BME280;4262;50.980;13.892;2023-12-20T04:56:15;59388.25;;;-142.97;76.66
8451;BME280;4262;50.980;13.892;2023-12-20T04:58:42;56386.91;;;-142.97;77.14
8451;BME280;4262;50.980;13.892;2023-12-20T05:01:09;53637.97;;;-142.97;77.40
8451;BME280;4262;50.980;13.892;2023-12-20T05:03:36;60139.00;;;-142.97;76.56
8451;BME280;4262;50.980;13.892;2023-12-20T05:06:02;56886.94;;;-142.97;76.86
8451;BME280;4262;50.980;13.892;2023-12-20T05:08:29;54387.47;;;-142.97;77.26
8451;BME280;4262;50.980;13.892;2023-12-20T05:10:56;56636.91;;;-142.97;76.86
8451;BME280;4262;50.980;13.892;2023-12-20T05:13:24;57637.13;;;-142.97;77.04
8451;BME280;4262;50.980;13.892;2023-12-20T05:15:51;50641.69;;;-142.97;77.74
8451;BME280;4262;50.980;13.892;2023-12-20T05:18:18;50891.28;;;-142.97;77.45
8451;BME280;4262;50.980;13.892;2023-12-20T05:20:44;46900.06;;;-142.97;78.12
8451;BME280;4262;50.980;13.892;2023-12-20T05:23:12;45653.78;;;-142.97;78.34
8451;BME280;4262;50.980;13.892;2023-12-20T05:25:39;41171.00;;;-142.97;78.86
8451;BME280;4262;50.980;13.892;2023-12-20T05:28:06;41171.00;;;-142.97;78.81
8451;BME280;4262;50.980;13.892;2023-12-20T05:30:34;39180.53;;;-142.97;78.98
8451;BME280;4262;50.980;13.892;2023-12-20T05:33:00;39678.03;;;-142.97;78.93
8451;BME280;4262;50.980;13.892;2023-12-20T05:35:27;42664.59;;;-142.97;78.51
8451;BME280;4262;50.980;13.892;2023-12-20T05:37:54;44407.97;;;-142.97;78.36
8451;BME280;4262;50.980;13.892;2023-12-20T05:40:21;38931.81;;;-142.97;78.98
8451;BME280;4262;50.980;13.892;2023-12-20T05:42:47;48146.81;;;-142.97;77.92
8451;BME280;4262;50.980;13.892;2023-12-20T05:45:15;35948.59;;;-142.97;79.65
8451;BME280;4262;50.980;13.892;2023-12-20T05:47:43;36445.63;;;-142.97;79.35
8451;BME280;4262;50.980;13.892;2023-12-20T05:50:10;37191.28;;;-142.97;79.46
8451;BME280;4262;50.980;13.892;2023-12-20T05:52:36;29494.03;;;-142.97;80.79
8451;BME280;4262;50.980;13.892;2023-12-20T05:55:03;24289.81;;;-142.97;81.71
8451;BME280;4262;50.980;13.892;2023-12-20T05:57:30;22309.41;;;-142.97;81.86
8451;BME280;4262;50.980;13.892;2023-12-20T05:59:58;21072.25;;;-142.97;82.24
8451;BME280;4262;50.980;13.892;2023-12-20T06:02:24;19093.72;;;-142.97;82.78
8451;BME280;4262;50.980;13.892;2023-12-20T06:04:53;19093.72;;;-142.97;82.42
8451;BME280;4262;50.980;13.892;2023-12-20T06:07:20;18599.28;;;-142.97;82.74
8451;BME280;4262;50.980;13.892;2023-12-20T06:09:46;20330.16;;;-142.97;82.44
8451;BME280;4262;50.980;13.892;2023-12-20T06:12:13;15881.19;;;-142.97;83.38
8451;BME280;4262;50.980;13.892;2023-12-20T06:14:39;18104.94;;;-142.97;83.10
8451;BME280;4262;50.980;13.892;2023-12-20T06:17:06;18846.50;;;-142.97;82.67
8451;BME280;4262;50.980;13.892;2023-12-20T06:19:33;17857.78;;;-142.97;82.77
8451;BME280;4262;50.980;13.892;2023-12-20T06:22:01;17610.63;;;-142.97;82.79
8451;BME280;4262;50.980;13.892;2023-12-20T06:24:27;20577.50;;;-142.97;82.22
8451;BME280;4262;50.980;13.892;2023-12-20T06:26:55;17610.63;;;-142.97;83.00
8451;BME280;4262;50.980;13.892;2023-12-20T06:29:22;18352.09;;;-142.97;82.56
8451;BME280;4262;50.980;13.892;2023-12-20T06:31:49;19588.25;;;-142.97;82.58
8451;BME280;4262;50.980;13.892;2023-12-20T06:34:15;18846.50;;;-142.97;82.74
8451;BME280;4262;50.980;13.892;2023-12-20T06:36:42;15634.19;;;-142.97;83.35
8451;BME280;4262;50.980;13.892;2023-12-20T06:39:10;19588.25;;;-142.97;82.63
8451;BME280;4262;50.980;13.892;2023-12-20T06:41:38;18599.28;;;-142.97;82.89
8451;BME280;4262;50.980;13.892;2023-12-20T06:44:05;18599.28;;;-142.97;82.83
8451;BME280;4262;50.980;13.892;2023-12-20T06:46:31;18846.50;;;-142.97;82.74
8451;BME280;4262;50.980;13.892;2023-12-20T06:48:58;17116.41;;;-142.97;83.08
8451;BME280;4262;50.980;13.892;2023-12-20T06:51:25;18104.94;;;-142.97;82.78
8451;BME280;4262;50.980;13.892;2023-12-20T06:53:52;15881.19;;;-142.97;83.30
8451;BME280;4262;50.980;13.892;2023-12-20T06:56:20;17363.50;;;-142.97;82.93
8451;BME280;4262;50.980;13.892;2023-12-20T06:58:47;16869.34;;;-142.97;83.00
8451;BME280;4262;50.980;13.892;2023-12-20T07:01:15;15140.28;;;-142.97;83.50
8451;BME280;4262;50.980;13.892;2023-12-20T07:03:42;14646.41;;;-142.97;83.71
8451;BME280;4262;50.980;13.892;2023-12-20T07:06:09;12671.75;;;-142.97;84.00
8451;BME280;4262;50.980;13.892;2023-12-20T07:08:36;13165.31;;;-142.97;83.99
8451;BME280;4262;50.980;13.892;2023-12-20T07:11:03;12918.53;;;-142.97;84.00
8451;BME280;4262;50.980;13.892;2023-12-20T07:13:31;13412.13;;;-142.97;84.03
8451;BME280;4262;50.980;13.892;2023-12-20T07:15:58;12671.75;;;-142.97;84.14
8451;BME280;4262;50.980;13.892;2023-12-20T07:18:24;11191.53;;;-142.97;84.39
8451;BME280;4262;50.980;13.892;2023-12-20T07:20:51;11931.56;;;-142.97;84.12
8451;BME280;4262;50.980;13.892;2023-12-20T07:23:20;14646.41;;;-142.97;83.27
8451;BME280;4262;50.980;13.892;2023-12-20T07:25:47;15881.19;;;-142.97;83.37
8451;BME280;4262;50.980;13.892;2023-12-20T07:28:13;15881.19;;;-142.97;83.20
8451;BME280;4262;50.980;13.892;2023-12-20T07:30:42;16128.19;;;-142.97;83.02
8451;BME280;4262;50.980;13.892;2023-12-20T07:33:08;15634.19;;;-142.97;83.39
8451;BME280;4262;50.980;13.892;2023-12-20T07:35:35;17610.63;;;-142.97;82.98
8451;BME280;4262;50.980;13.892;2023-12-20T07:38:03;16375.22;;;-142.97;83.41
8451;BME280;4262;50.980;13.892;2023-12-20T07:40:29;14893.34;;;-142.97;83.54
8451;BME280;4262;50.980;13.892;2023-12-20T07:42:56;16128.19;;;-142.97;83.15
8451;BME280;4262;50.980;13.892;2023-12-20T07:45:23;16375.22;;;-142.97;82.87
8451;BME280;4262;50.980;13.892;2023-12-20T07:47:52;16375.22;;;-142.97;83.19
8451;BME280;4262;50.980;13.892;2023-12-20T07:50:19;20824.84;;;-142.97;82.09
8451;BME280;4262;50.980;13.892;2023-12-20T07:52:48;22061.94;;;-142.97;81.83
8451;BME280;4262;50.980;13.892;2023-12-20T07:55:15;24289.81;;;-142.97;81.42
8451;BME280;4262;50.980;13.892;2023-12-20T07:57:42;23051.91;;;-142.97;81.93
8451;BME280;4262;50.980;13.892;2023-12-20T08:00:10;25280.47;;;-142.97;81.27
8451;BME280;4262;50.980;13.892;2023-12-20T08:02:37;26271.41;;;-142.97;81.45
8451;BME280;4262;50.980;13.892;2023-12-20T08:05:05;30486.22;;;-142.97;80.67
8451;BME280;4262;50.980;13.892;2023-12-20T08:07:32;33216.28;;;-142.97;80.30
8451;BME280;4262;50.980;13.892;2023-12-20T08:09:59;34706.38;;;-142.97;79.80
8451;BME280;4262;50.980;13.892;2023-12-20T08:12:26;36445.63;;;-142.97;79.56
8451;BME280;4262;50.980;13.892;2023-12-20T08:14:53;37439.88;;;-142.97;79.51
8451;BME280;4262;50.980;13.892;2023-12-20T08:17:20;39678.03;;;-142.97;79.09
8451;BME280;4262;50.980;13.892;2023-12-20T08:19:48;45653.78;;;-142.97;78.30
8451;BME280;4262;50.980;13.892;2023-12-20T08:22:17;48895.09;;;-142.97;77.86
8451;BME280;4262;50.980;13.892;2023-12-20T08:24:44;50142.56;;;-142.97;77.87
8451;BME280;4262;50.980;13.892;2023-12-20T08:27:10;56886.94;;;-142.97;77.06
8451;BME280;4262;50.980;13.892;2023-12-20T08:29:37;65900.31;;;-142.97;76.28
8451;BME280;4262;50.980;13.892;2023-12-20T08:32:04;64897.66;;;-142.97;76.32
8451;BME280;4262;50.980;13.892;2023-12-20T08:34:31;69411.97;;;-142.97;75.89
8451;BME280;4262;50.980;13.892;2023-12-20T08:36:58;71924.47;;;-142.97;75.64
8451;BME280;4262;50.980;13.892;2023-12-20T08:39:26;72256.06;;;-142.97;75.67
8451;BME280;4262;50.980;13.892;2023-12-20T08:41:55;80684.56;;;-142.97;74.75
8451;BME280;4262;50.980;13.892;2023-12-20T08:44:22;82484.91;;;-142.97;74.12
8451;BME280;4262;50.980;13.892;2023-12-20T08:46:49;88033.56;;;-142.97;73.00
8451;BME280;4262;50.980;13.892;2023-12-20T08:49:15;88841.88;;;-142.97;72.27
8451;BME280;4262;50.980;13.892;2023-12-20T08:51:42;88839.91;;;-142.97;72.04
8451;BME280;4262;50.980;13.892;2023-12-20T08:54:09;88938.50;;;-142.97;71.95
8451;BME280;4262;50.980;13.892;2023-12-20T08:56:37;89155.41;;;-142.97;71.20
8451;BME280;4262;50.980;13.892;2023-12-20T08:59:04;89129.78;;;-142.97;70.55
8451;BME280;4262;50.980;13.892;2023-12-20T09:01:31;89090.34;;;-142.97;70.38
8451;BME280;4262;50.980;13.892;2023-12-20T09:03:58;89112.03;;;-142.97;69.94
8451;BME280;4262;50.980;13.892;2023-12-20T09:06:24;88974.00;;;-142.97;68.12
8451;BME280;4262;50.980;13.892;2023-12-20T09:08:51;88841.88;;;-142.97;67.57
8451;BME280;4262;50.980;13.892;2023-12-20T09:11:18;88672.31;;;-142.97;66.46
8451;BME280;4262;50.980;13.892;2023-12-20T09:13:46;88804.44;;;-142.97;66.97
8451;BME280;4262;50.980;13.892;2023-12-20T09:16:13;88577.69;;;-142.97;65.76
8451;BME280;4262;50.980;13.892;2023-12-20T09:18:41;88755.13;;;-142.97;66.49
8451;BME280;4262;50.980;13.892;2023-12-20T09:21:08;88690.06;;;-142.97;66.58
8451;BME280;4262;50.980;13.892;2023-12-20T09:23:34;88739.34;;;-142.97;66.77
8451;BME280;4262;50.980;13.892;2023-12-20T09:26:02;88591.50;;;-142.97;66.34
8451;BME280;4262;50.980;13.892;2023-12-20T09:28:29;88595.44;;;-142.97;66.81
8451;BME280;4262;50.980;13.892;2023-12-20T09:30:59;88599.38;;;-142.97;66.39
8451;BME280;4262;50.980;13.892;2023-12-20T09:33:26;88607.25;;;-142.97;66.37
8451;BME280;4262;50.980;13.892;2023-12-20T09:35:53;88508.69;;;-142.97;66.09
8451;BME280;4262;50.980;13.892;2023-12-20T09:38:20;88343.06;;;-142.97;65.69
8451;BME280;4262;50.980;13.892;2023-12-20T09:40:47;88309.56;;;-142.97;65.67
8451;BME280;4262;50.980;13.892;2023-12-20T09:43:14;88153.81;;;-142.97;65.61
8451;BME280;4262;50.980;13.892;2023-12-20T09:45:44;88027.66;;;-142.97;65.04
8451;BME280;4262;50.980;13.892;2023-12-20T09:48:13;88007.94;;;-142.97;65.08
8451;BME280;4262;50.980;13.892;2023-12-20T09:50:43;87940.91;;;-142.97;65.13
8451;BME280;4262;50.980;13.892;2023-12-20T09:53:12;87556.53;;;-142.97;63.89
8451;BME280;4262;50.980;13.892;2023-12-20T09:55:41;86667.72;;;-142.97;60.96
8451;BME280;4262;50.980;13.892;2023-12-20T09:58:08;86074.66;;;-142.97;56.29
8451;BME280;4262;50.980;13.892;2023-12-20T10:00:35;85964.34;;;-142.97;54.00
8451;BME280;4262;50.980;13.892;2023-12-20T10:03:03;85881.59;;;-142.97;52.11
8451;BME280;4262;50.980;13.892;2023-12-20T10:05:33;85737.78;;;-142.97;50.88
8451;BME280;4262;50.980;13.892;2023-12-20T10:08:00;85590.03;;;-142.97;47.67
8451;BME280;4262;50.980;13.892;2023-12-20T10:10:28;85653.06;;;-142.97;48.23
8451;BME280;4262;50.980;13.892;2023-12-20T10:13:02;85542.75;;;-142.97;46.53
8451;BME280;4262;50.980;13.892;2023-12-20T10:15:30;85550.63;;;-142.97;47.35
8451;BME280;4262;50.980;13.892;2023-12-20T10:17:57;85657.00;;;-142.97;48.00
8451;BME280;4262;50.980;13.892;2023-12-20T10:20:24;85564.41;;;-142.97;46.90
8451;BME280;4262;50.980;13.892;2023-12-20T10:22:53;85672.78;;;-142.97;47.67
8451;BME280;4262;50.980;13.892;2023-12-20T10:25:21;85530.94;;;-142.97;46.60
8451;BME280;4262;50.980;13.892;2023-12-20T10:27:49;85525.03;;;-142.97;46.12
8451;BME280;4262;50.980;13.892;2023-12-20T10:30:16;85556.53;;;-142.97;46.11
8451;BME280;4262;50.980;13.892;2023-12-20T10:32:43;85655.03;;;-142.97;46.88
8451;BME280;4262;50.980;13.892;2023-12-20T10:35:10;85668.81;;;-142.97;47.60
8451;BME280;4262;50.980;13.892;2023-12-20T10:37:37;85631.41;;;-142.97;47.26
8451;BME280;4262;50.980;13.892;2023-12-20T10:40:06;85649.13;;;-142.97;47.27
8451;BME280;4262;50.980;13.892;2023-12-20T10:42:35;85562.47;;;-142.97;46.41
8451;BME280;4262;50.980;13.892;2023-12-20T10:45:04;85540.78;;;-142.97;45.13
8451;BME280;4262;50.980;13.892;2023-12-20T10:47:31;85597.91;;;-142.97;45.74
8451;BME280;4262;50.980;13.892;2023-12-20T10:49:59;85556.53;;;-142.97;45.52
8451;BME280;4262;50.980;13.892;2023-12-20T10:52:27;85489.56;;;-142.97;44.85
8451;BME280;4262;50.980;13.892;2023-12-20T10:54:55;85552.59;;;-142.97;45.03
8451;BME280;4262;50.980;13.892;2023-12-20T10:57:26;85540.78;;;-142.97;45.43
8451;BME280;4262;50.980;13.892;2023-12-20T10:59:54;85523.06;;;-142.97;44.99
8451;BME280;4262;50.980;13.892;2023-12-20T11:02:22;85499.41;;;-142.97;44.45
8451;BME280;4262;50.980;13.892;2023-12-20T11:04:53;85456.09;;;-142.97;44.19
8451;BME280;4262;50.980;13.892;2023-12-20T11:07:23;85296.53;;;-142.97;43.36
8451;BME280;4262;50.980;13.892;2023-12-20T11:09:57;85148.81;;;-142.97;42.06
8451;BME280;4262;50.980;13.892;2023-12-20T11:12:34;85231.53;;;-142.97;42.49
8451;BME280;4262;50.980;13.892;2023-12-20T11:15:02;86056.94;;;-142.97;42.65
8451;BME280;4262;50.980;13.892;2023-12-20T11:17:31;85233.50;;;-142.97;42.52
8451;BME280;4262;50.980;13.892;2023-12-20T11:20:07;85211.84;;;-142.97;42.11
8451;BME280;4262;50.980;13.892;2023-12-20T11:22:36;86212.56;;;-142.97;44.25
8451;BME280;4262;50.980;13.892;2023-12-20T11:25:06;85395.03;;;-142.97;44.04
8451;BME280;4262;50.980;13.892;2023-12-20T11:27:35;86121.94;;;-142.97;45.30
8451;BME280;4262;50.980;13.892;2023-12-20T11:30:03;86407.63;;;-142.97;46.61
8451;BME280;4262;50.980;13.892;2023-12-20T11:32:34;86512.06;;;-142.97;47.47
8451;BME280;4262;50.980;13.892;2023-12-20T11:35:17;86602.72;;;-142.97;48.78
8451;BME280;4262;50.980;13.892;2023-12-20T11:37:45;85832.34;;;-142.97;49.51
8451;BME280;4262;50.980;13.892;2023-12-20T11:40:14;86579.06;;;-142.97;47.73
8451;BME280;4262;50.980;13.892;2023-12-20T11:42:44;86732.75;;;-142.97;48.94
8451;BME280;4262;50.980;13.892;2023-12-20T11:45:13;86782.03;;;-142.97;50.69
8451;BME280;4262;50.980;13.892;2023-12-20T11:47:42;86784.00;;;-142.97;51.17
8451;BME280;4262;50.980;13.892;2023-12-20T11:50:09;86819.47;;;-142.97;52.50
8451;BME280;4262;50.980;13.892;2023-12-20T11:52:36;86851.00;;;-142.97;52.89
8451;BME280;4262;50.980;13.892;2023-12-20T11:55:03;86827.34;;;-142.97;52.65
8451;BME280;4262;50.980;13.892;2023-12-20T11:57:30;86880.56;;;-142.97;52.89
8451;BME280;4262;50.980;13.892;2023-12-20T11:59:59;86896.31;;;-142.97;53.03
8451;BME280;4262;50.980;13.892;2023-12-20T12:02:26;86514.03;;;-142.97;53.28
8451;BME280;4262;50.980;13.892;2023-12-20T12:04:53;86655.91;;;-142.97;53.06
8451;BME280;4262;50.980;13.892;2023-12-20T12:07:21;86108.16;;;-142.97;51.78
8451;BME280;4262;50.980;13.892;2023-12-20T12:09:48;86703.19;;;-142.97;52.35
8451;BME280;4262;50.980;13.892;2023-12-20T12:12:14;86787.94;;;-142.97;52.14
8451;BME280;4262;50.980;13.892;2023-12-20T12:14:41;85952.50;;;-142.97;50.29
8451;BME280;4262;50.980;13.892;2023-12-20T12:17:13;85869.78;;;-142.97;48.03
8451;BME280;4262;50.980;13.892;2023-12-20T12:19:40;85731.88;;;-142.97;46.46
8451;BME280;4262;50.980;13.892;2023-12-20T12:22:08;85747.63;;;-142.97;45.89
8451;BME280;4262;50.980;13.892;2023-12-20T12:24:38;85779.16;;;-142.97;44.99
8451;BME280;4262;50.980;13.892;2023-12-20T12:27:05;85682.63;;;-142.97;44.43
8451;BME280;4262;50.980;13.892;2023-12-20T12:29:32;85749.59;;;-142.97;44.25
8451;BME280;4262;50.980;13.892;2023-12-20T12:31:59;85775.22;;;-142.97;44.87
8451;BME280;4262;50.980;13.892;2023-12-20T12:34:28;85724.00;;;-142.97;44.57
8451;BME280;4262;50.980;13.892;2023-12-20T12:36:55;85627.47;;;-142.97;43.76
8451;BME280;4262;50.980;13.892;2023-12-20T12:39:23;85662.91;;;-142.97;43.72
8451;BME280;4262;50.980;13.892;2023-12-20T12:41:50;85601.84;;;-142.97;42.38
8451;BME280;4262;50.980;13.892;2023-12-20T12:44:17;85704.28;;;-142.97;43.34
8451;BME280;4262;50.980;13.892;2023-12-20T12:46:44;85556.53;;;-142.97;42.31
8451;BME280;4262;50.980;13.892;2023-12-20T12:49:12;85830.38;;;-142.97;44.44
8451;BME280;4262;50.980;13.892;2023-12-20T12:51:40;85814.59;;;-142.97;44.77